Main page
METAR-TAF:

METAR-TAF

Airports :

El Obeid Airport

Al-Ubayyid, Sudan

latitude: 13-10N, longitude: 030-14E, elevation: 574 m

METAR: missing

Time: 21:08 (19:08 UTC)

Forecast

The report was made 2 hours and 8 minutes ago, at 17:00 UTC
Forecast valid from 21 at 18 UTC to 22 at 24 UTC
Wind 12 kt from the North/Northeast with gusts up to 22 kt
Visibility 10 km or more
no clouds below 1500 m and no cumulonimbus

TAF: HSOB 211700Z 2118/2224 02012G22KT CAVOK

Weather observations and forecasts of more than 4000 airports (METAR and TAF reports).

The available stations are represented by yellow and red dots on the map.

Hover mouse over dot to see the name of the station.

Then click to see weather observations and forecasts.

To change the map : click on the green buttons with a black cross to zoom in, on the green button with a dash to zoom out, or on the green arrows for adjacent maps.


METAR-TAF: